Time;durP1;ratioP1;P1;durP2;ratioP2;P2;SDS_P1;SDS_P2;PMS_P1;PMS_P2;Temp;Humidity;BMP_temperature;BMP_pressure;BME280_temperature;BME280_humidity;BME280_pressure;Samples;Min_cycle;Max_cycle;Signal;HPM_P1;HPM_P2
2023/01/07 00:02:30;;;;;;;1.30;1.20;;;15.10;94.80;;;;;;5073789;28;20224;-65
2023/01/07 00:05:18;;;;;;;1.40;1.30;;;15.10;94.80;;;;;;5074434;28;20204;-66
2023/01/07 00:08:06;;;;;;;1.17;1.10;;;14.90;94.70;;;;;;5072925;28;20704;-66
2023/01/07 00:10:54;;;;;;;1.50;1.40;;;15.10;94.80;;;;;;5074144;28;20277;-67
2023/01/07 00:13:42;;;;;;;1.48;1.30;;;15.10;94.80;;;;;;5073797;28;20509;-66
2023/01/07 00:16:32;;;;;;;1.70;1.20;;;15.10;94.80;;;;;;5074163;28;20201;-67
2023/01/07 00:19:23;;;;;;;1.65;1.55;;;14.90;94.70;;;;;;5074217;28;20714;-67
2023/01/07 00:22:11;;;;;;;2.10;1.23;;;15.10;94.80;;;;;;5073083;28;20597;-66
2023/01/07 00:24:59;;;;;;;2.00;1.77;;;15.10;94.80;;;;;;5074586;28;20279;-65
2023/01/07 00:27:47;;;;;;;1.37;1.27;;;15.10;94.90;;;;;;5073509;28;20211;-64
2023/01/07 00:30:35;;;;;;;1.33;1.23;;;15.10;94.90;;;;;;5073774;28;20279;-66
2023/01/07 00:33:26;;;;;;;1.45;1.30;;;14.90;94.80;;;;;;5072362;28;20307;-64
2023/01/07 00:36:16;;;;;;;1.90;1.40;;;15.00;94.90;;;;;;5073927;28;20279;-64
2023/01/07 00:39:06;;;;;;;1.20;1.20;;;15.00;94.90;;;;;;5073685;28;20203;-64
2023/01/07 00:45:00;;;;;;;1.60;1.50;;;15.10;94.80;;;;;;5072235;28;20201;-63
2023/01/07 00:47:48;;;;;;;1.83;1.50;;;15.00;94.90;;;;;;5072262;28;20215;-64
2023/01/07 00:50:37;;;;;;;1.30;1.20;;;15.10;94.90;;;;;;5073193;28;20197;-63
2023/01/07 00:53:29;;;;;;;1.88;1.67;;;15.00;94.80;;;;;;5072954;28;20280;-66
2023/01/07 00:56:17;;;;;;;1.37;1.27;;;15.00;94.90;;;;;;5073210;28;20280;-63
2023/01/07 00:59:05;;;;;;;1.20;1.20;;;15.00;94.80;;;;;;5073406;28;20205;-63
2023/01/07 01:01:53;;;;;;;1.50;1.40;;;15.10;94.90;;;;;;5072605;28;20309;-64
2023/01/07 01:04:42;;;;;;;1.40;1.30;;;15.00;94.80;;;;;;5073446;28;20201;-61
2023/01/07 01:07:30;;;;;;;1.35;1.25;;;15.00;94.80;;;;;;5071664;28;20197;-62
2023/01/07 01:10:20;;;;;;;1.30;1.20;;;15.10;94.90;;;;;;5072987;28;20284;-63
2023/01/07 01:13:12;;;;;;;1.33;1.23;;;15.00;94.80;;;;;;5071592;28;20224;-66
2023/01/07 01:16:00;;;;;;;0.90;0.90;;;15.00;94.80;;;;;;5073334;28;20696;-66
2023/01/07 01:18:48;;;;;;;1.67;1.13;;;15.00;94.80;;;;;;5072359;28;20430;-65
2023/01/07 01:21:36;;;;;;;1.13;1.13;;;15.10;94.80;;;;;;5072322;28;20221;-62
2023/01/07 01:24:24;;;;;;;1.30;1.20;;;15.10;94.80;;;;;;5072820;28;20263;-64
2023/01/07 01:27:14;;;;;;;2.33;1.58;;;15.10;94.80;;;;;;5072336;28;20800;-62
2023/01/07 01:30:04;;;;;;;1.30;1.20;;;15.00;94.70;;;;;;5072732;28;20689;-64
2023/01/07 01:32:52;;;;;;;1.70;1.60;;;15.10;94.80;;;;;;5071629;28;20644;-66
2023/01/07 01:35:40;;;;;;;1.50;1.40;;;14.80;94.60;;;;;;5072749;28;20275;-65
2023/01/07 01:38:30;;;;;;;1.10;1.10;;;15.00;94.70;;;;;;5072612;28;20283;-64
2023/01/07 01:41:18;;;;;;;1.10;1.10;;;15.10;94.80;;;;;;5071515;28;20792;-65
2023/01/07 01:44:35;;;;;;;1.30;1.20;;;15.00;94.70;;;;;;5071485;28;20685;-63
2023/01/07 01:47:32;;;;;;;2.10;1.30;;;15.00;94.70;;;;;;5070693;28;20289;-66
2023/01/07 01:50:26;;;;;;;1.40;1.30;;;15.00;94.70;;;;;;5072344;28;20229;-61
2023/01/07 01:53:18;;;;;;;1.38;1.27;;;14.90;94.70;;;;;;5071829;28;20216;-61
2023/01/07 01:56:12;;;;;;;1.60;1.42;;;15.00;94.80;;;;;;5071056;28;20690;-67
2023/01/07 01:59:04;;;;;;;1.20;1.10;;;15.00;94.80;;;;;;5072417;28;20233;-63
2023/01/07 02:01:53;;;;;;;1.43;1.33;;;15.00;94.80;;;;;;5071237;28;20259;-64
2023/01/07 02:04:42;;;;;;;1.60;1.10;;;15.00;94.80;;;;;;5072157;28;20739;-64
2023/01/07 02:07:30;;;;;;;1.27;1.17;;;15.00;94.80;;;;;;5072200;28;20207;-62
2023/01/07 02:10:22;;;;;;;1.83;1.57;;;15.00;94.80;;;;;;5071900;28;20262;-61
2023/01/07 02:13:23;;;;;;;1.23;1.20;;;15.00;94.80;;;;;;5070644;28;20303;-66
2023/01/07 02:16:18;;;;;;;2.25;1.40;;;15.00;94.80;;;;;;5071510;28;20196;-62
2023/01/07 02:19:33;;;;;;;1.30;1.20;;;15.00;94.80;;;;;;5072256;28;20232;-65
2023/01/07 02:22:42;;;;;;;1.38;1.20;;;14.90;95.20;;;;;;5070727;28;20311;-66
2023/01/07 02:25:53;;;;;;;1.30;1.20;;;15.00;94.90;;;;;;5071240;28;20200;-64
2023/01/07 02:29:15;;;;;;;1.93;1.50;;;15.00;94.80;;;;;;5071847;28;20196;-65
2023/01/07 02:32:18;;;;;;;1.35;1.25;;;15.00;94.80;;;;;;5069935;28;20216;-66
2023/01/07 02:35:18;;;;;;;1.02;1.00;;;15.00;94.80;;;;;;5071816;28;20278;-63
2023/01/07 02:38:16;;;;;;;1.20;1.10;;;15.00;94.80;;;;;;5070593;28;20291;-64
2023/01/07 02:41:14;;;;;;;1.70;1.60;;;14.90;99.90;;;;;;5068286;28;20675;-66
2023/01/07 02:44:04;;;;;;;2.22;1.55;;;15.10;94.80;;;;;;5081943;28;20259;-64
2023/01/07 02:46:55;;;;;;;4.85;1.38;;;15.10;94.90;;;;;;5092486;28;20723;-65
2023/01/07 02:49:47;;;;;;;1.88;1.20;;;15.10;94.80;;;;;;5090643;28;20277;-65
2023/01/07 02:52:36;;;;;;;1.20;1.10;;;15.00;94.80;;;;;;5089959;28;20230;-65
2023/01/07 02:55:36;;;;;;;1.40;1.30;;;15.20;94.90;;;;;;5091204;28;20798;-61
2023/01/07 02:58:56;;;;;;;1.25;1.15;;;14.90;94.70;;;;;;5090292;28;20799;-64
2023/01/07 03:02:05;;;;;;;1.10;1.00;;;15.00;94.70;;;;;;5092534;28;20385;-64
2023/01/07 03:05:10;;;;;;;1.93;1.13;;;14.90;94.70;;;;;;5091098;28;20261;-67
2023/01/07 03:08:12;;;;;;;1.20;1.10;;;15.00;94.70;;;;;;5092313;28;20226;-64
2023/01/07 03:11:03;;;;;;;1.20;1.10;;;15.20;99.90;;;;;;5089848;28;20691;-60
2023/01/07 03:14:00;;;;;;;2.33;1.20;;;15.00;94.80;;;;;;5095199;28;20198;-66
2023/01/07 03:16:54;;;;;;;1.00;1.00;;;15.00;94.80;;;;;;5094342;28;20684;-66
2023/01/07 03:19:47;;;;;;;1.20;1.10;;;14.90;94.70;;;;;;5093645;28;20277;-62
2023/01/07 03:22:39;;;;;;;1.50;1.40;;;14.90;94.70;;;;;;5095994;28;20307;-66
2023/01/07 03:25:30;;;;;;;2.10;1.38;;;15.00;94.80;;;;;;5093784;28;20216;-65
2023/01/07 03:28:23;;;;;;;1.40;1.30;;;15.20;94.90;;;;;;5094418;28;20210;-66
2023/01/07 03:31:14;;;;;;;1.48;1.38;;;15.00;99.90;;;;;;5093799;28;20755;-65
2023/01/07 03:34:06;;;;;;;1.23;1.10;;;15.10;94.90;;;;;;5093568;28;20269;-64
2023/01/07 03:36:57;;;;;;;1.50;1.40;;;15.00;94.90;;;;;;5094624;28;20207;-66
2023/01/07 03:39:47;;;;;;;1.50;1.40;;;15.00;95.20;;;;;;5093359;28;20261;-65
2023/01/07 03:42:41;;;;;;;2.03;1.20;;;15.00;95.00;;;;;;5093912;28;20307;-65
2023/01/07 03:45:30;;;;;;;1.17;1.10;;;15.00;94.90;;;;;;5093118;28;20227;-66
2023/01/07 03:48:18;;;;;;;1.50;1.20;;;15.00;94.90;;;;;;5094116;28;20196;-64
2023/01/07 03:51:06;;;;;;;1.75;1.45;;;14.90;99.90;;;;;;5093659;28;20317;-67
2023/01/07 03:53:54;;;;;;;1.30;1.30;;;15.00;95.00;;;;;;5093748;28;20271;-66
2023/01/07 03:56:43;;;;;;;1.13;1.02;;;14.90;94.80;;;;;;5094344;28;20204;-66
2023/01/07 03:59:31;;;;;;;1.38;0.98;;;15.00;94.90;;;;;;5093973;28;20778;-65
2023/01/07 04:02:19;;;;;;;1.10;1.10;;;15.10;94.90;;;;;;5093914;28;20224;-65
2023/01/07 04:05:09;;;;;;;1.00;1.00;;;15.00;94.90;;;;;;5094313;28;20352;-63
2023/01/07 04:07:57;;;;;;;1.25;1.15;;;15.00;94.80;;;;;;5093065;28;20377;-67
2023/01/07 04:10:45;;;;;;;1.35;1.25;;;15.00;94.80;;;;;;5093625;28;20200;-66
2023/01/07 04:13:34;;;;;;;1.00;1.00;;;15.20;94.90;;;;;;5093938;28;20751;-67
2023/01/07 04:16:22;;;;;;;1.30;1.17;;;15.20;94.90;;;;;;5093468;28;20232;-63
2023/01/07 04:19:10;;;;;;;1.17;1.13;;;15.00;94.80;;;;;;5093655;28;20208;-67
2023/01/07 04:21:58;;;;;;;1.15;1.00;;;15.00;94.80;;;;;;5093074;28;20303;-64
2023/01/07 04:24:46;;;;;;;1.10;1.10;;;15.00;94.80;;;;;;5092096;28;20772;-62
2023/01/07 04:27:34;;;;;;;1.38;1.20;;;15.00;94.80;;;;;;5093039;28;20204;-64
2023/01/07 04:30:24;;;;;;;2.13;1.20;;;15.00;94.80;;;;;;5093481;28;20240;-65
2023/01/07 04:33:12;;;;;;;1.38;1.27;;;15.00;94.80;;;;;;5092995;28;20216;-62
2023/01/07 04:36:00;;;;;;;1.38;1.27;;;15.00;94.80;;;;;;5093231;28;20203;-66
2023/01/07 04:38:48;;;;;;;1.45;1.35;;;15.00;94.80;;;;;;5092677;28;20200;-65
2023/01/07 04:41:36;;;;;;;1.20;1.10;;;15.00;94.80;;;;;;5086219;28;20705;-65
2023/01/07 04:44:24;;;;;;;1.30;1.13;;;15.00;94.80;;;;;;5073904;28;20220;-65
2023/01/07 04:47:13;;;;;;;1.42;1.20;;;15.20;94.90;;;;;;5073866;28;20283;-66
2023/01/07 04:50:01;;;;;;;1.13;1.08;;;15.00;94.80;;;;;;5073164;28;20218;-66
2023/01/07 04:52:50;;;;;;;0.97;0.97;;;15.10;94.80;;;;;;5074248;28;20358;-65
2023/01/07 04:55:38;;;;;;;1.40;1.10;;;14.90;94.80;;;;;;5072389;28;20279;-66
2023/01/07 04:58:26;;;;;;;1.10;1.10;;;15.10;94.90;;;;;;5071947;28;20201;-67
2023/01/07 05:01:14;;;;;;;1.30;1.10;;;15.10;99.90;;;;;;5072979;28;20284;-67
2023/01/07 05:04:04;;;;;;;1.30;1.20;;;15.00;94.90;;;;;;5072193;28;20196;-66
2023/01/07 05:06:52;;;;;;;1.02;1.02;;;15.00;94.90;;;;;;5071823;28;20331;-66
2023/01/07 05:09:40;;;;;;;1.02;0.93;;;15.00;94.90;;;;;;5072384;28;20717;-64
2023/01/07 05:12:28;;;;;;;1.65;1.33;;;15.30;95.00;;;;;;5072363;28;20350;-63
2023/01/07 05:15:16;;;;;;;1.35;1.25;;;15.10;94.90;;;;;;5071909;28;20276;-64
2023/01/07 05:18:05;;;;;;;1.20;1.10;;;15.10;94.90;;;;;;5071999;28;20243;-65
2023/01/07 05:20:54;;;;;;;1.55;1.23;;;15.10;94.80;;;;;;5071562;28;20224;-65
2023/01/07 05:23:42;;;;;;;1.10;1.00;;;15.20;94.90;;;;;;5071740;28;20279;-67
2023/01/07 05:26:30;;;;;;;1.40;1.30;;;15.20;94.90;;;;;;5071234;28;20300;-65
2023/01/07 05:29:18;;;;;;;1.42;1.33;;;15.10;94.80;;;;;;5071613;28;20282;-66
2023/01/07 05:32:06;;;;;;;0.93;0.93;;;15.30;94.90;;;;;;5071003;28;20785;-62
2023/01/07 05:34:54;;;;;;;1.43;1.33;;;15.20;94.80;;;;;;5070606;28;20237;-64
2023/01/07 05:37:44;;;;;;;1.05;0.93;;;15.20;94.80;;;;;;5071838;28;20330;-63
2023/01/07 05:40:32;;;;;;;0.90;0.90;;;15.20;94.70;;;;;;5071334;28;20280;-66
2023/01/07 05:43:21;;;;;;;1.42;1.33;;;15.20;94.70;;;;;;5071456;28;20768;-62
2023/01/07 05:46:08;;;;;;;1.30;1.20;;;15.20;94.60;;;;;;5071891;28;20299;-65
2023/01/07 05:48:57;;;;;;;1.10;1.00;;;15.20;94.70;;;;;;5071244;28;20758;-62
2023/01/07 05:51:45;;;;;;;1.00;0.90;;;15.30;94.70;;;;;;5063348;28;20212;-66
2023/01/07 05:54:34;;;;;;;1.00;1.00;;;15.50;94.80;;;;;;5070404;28;20323;-64
2023/01/07 05:57:22;;;;;;;1.20;1.10;;;15.20;94.60;;;;;;5071404;28;20201;-63
2023/01/07 06:00:11;;;;;;;1.05;1.00;;;15.30;94.60;;;;;;5070598;28;20205;-66
2023/01/07 06:02:59;;;;;;;1.20;1.10;;;15.20;94.60;;;;;;5071250;28;20704;-62
2023/01/07 06:05:47;;;;;;;1.43;1.10;;;15.30;94.70;;;;;;5071830;28;20709;-63
2023/01/07 06:08:36;;;;;;;1.10;1.00;;;15.40;94.70;;;;;;5070930;28;20197;-64
2023/01/07 06:11:26;;;;;;;1.13;1.13;;;15.30;94.60;;;;;;5070051;28;20220;-67
2023/01/07 06:14:14;;;;;;;0.90;0.90;;;15.10;94.60;;;;;;5071073;28;20204;-67
2023/01/07 06:17:02;;;;;;;1.27;1.10;;;15.20;94.60;;;;;;5071623;28;20200;-64
2023/01/07 06:19:50;;;;;;;1.20;1.10;;;15.20;94.60;;;;;;5070058;28;20201;-66
2023/01/07 06:22:38;;;;;;;1.50;1.40;;;15.20;94.70;;;;;;5070825;28;20790;-63
2023/01/07 06:25:26;;;;;;;0.80;0.80;;;15.20;94.70;;;;;;5070786;28;20231;-63
2023/01/07 06:28:15;;;;;;;0.90;0.90;;;15.20;94.70;;;;;;5071790;28;20352;-66
2023/01/07 06:31:04;;;;;;;0.80;0.80;;;15.00;99.90;;;;;;5070470;28;20258;-64
2023/01/07 06:33:52;;;;;;;0.90;0.90;;;15.10;94.70;;;;;;5070739;28;20778;-62
2023/01/07 06:36:40;;;;;;;1.00;1.00;;;15.10;94.70;;;;;;5070590;28;20237;-61
2023/01/07 06:39:28;;;;;;;1.40;1.30;;;15.20;94.80;;;;;;5069918;28;20208;-63
2023/01/07 06:42:16;;;;;;;1.30;1.20;;;15.10;94.50;;;;;;5100524;23;20310;-61
2023/01/07 06:45:06;;;;;;;0.98;0.93;;;15.10;94.80;;;;;;5090790;28;20640;-61
2023/01/07 06:47:56;;;;;;;1.00;1.00;;;15.10;94.70;;;;;;5090995;28;20203;-61
2023/01/07 06:50:45;;;;;;;1.05;0.95;;;15.10;94.80;;;;;;5090790;28;20675;-62
2023/01/07 06:53:33;;;;;;;1.47;1.13;;;15.10;94.90;;;;;;5092187;28;20220;-61
2023/01/07 06:56:21;;;;;;;1.30;1.00;;;15.10;94.80;;;;;;5092735;28;20592;-62
2023/01/07 06:59:10;;;;;;;1.00;1.00;;;15.20;94.90;;;;;;5091837;28;20204;-62
2023/01/07 07:01:59;;;;;;;1.00;0.90;;;15.10;95.00;;;;;;5093657;28;20212;-61
2023/01/07 07:04:47;;;;;;;1.35;1.25;;;15.20;94.80;;;;;;5091833;28;20210;-61
2023/01/07 07:07:35;;;;;;;1.60;1.50;;;15.10;94.90;;;;;;5092002;28;20561;-61
2023/01/07 07:10:23;;;;;;;1.20;1.10;;;15.20;94.90;;;;;;5090837;28;20195;-62
2023/01/07 07:13:11;;;;;;;0.98;0.98;;;15.20;94.80;;;;;;5091789;28;20296;-61
2023/01/07 07:16:00;;;;;;;1.33;1.00;;;15.30;94.80;;;;;;5091621;28;20202;-62
2023/01/07 07:18:49;;;;;;;0.90;0.90;;;15.20;94.70;;;;;;5091383;28;20196;-61
2023/01/07 07:21:37;;;;;;;0.90;0.90;;;15.40;94.90;;;;;;5092129;28;20298;-61
2023/01/07 07:24:25;;;;;;;1.10;1.00;;;15.30;94.80;;;;;;5089794;28;20285;-62
2023/01/07 07:27:13;;;;;;;1.10;1.10;;;15.20;94.70;;;;;;5091834;28;20251;-61
2023/01/07 07:30:01;;;;;;;1.10;1.00;;;15.30;94.80;;;;;;5091938;28;20200;-61
2023/01/07 07:32:49;;;;;;;1.00;0.90;;;15.20;94.70;;;;;;5091648;28;20289;-62
2023/01/07 07:35:39;;;;;;;0.80;0.80;;;15.20;94.70;;;;;;5092228;28;20200;-61
2023/01/07 07:38:27;;;;;;;0.95;0.95;;;15.30;94.70;;;;;;5091007;28;20219;-61
2023/01/07 07:41:15;;;;;;;1.05;0.98;;;15.20;94.60;;;;;;5090863;28;20287;-61
2023/01/07 07:44:03;;;;;;;1.00;1.00;;;15.20;94.60;;;;;;5091200;28;20269;-62
2023/01/07 07:46:51;;;;;;;0.90;0.90;;;15.20;94.60;;;;;;5092155;28;20269;-61
2023/01/07 07:49:39;;;;;;;0.80;0.80;;;15.10;94.60;;;;;;5090813;28;20215;-62
2023/01/07 07:52:28;;;;;;;0.90;0.90;;;15.20;94.60;;;;;;5090383;28;20224;-62
2023/01/07 07:55:17;;;;;;;0.80;0.80;;;15.30;94.70;;;;;;5092221;28;20207;-61
2023/01/07 07:58:13;;;;;;;1.17;0.90;;;15.10;94.60;;;;;;5090943;28;20196;-61
2023/01/07 08:01:01;;;;;;;0.88;0.88;;;15.20;94.60;;;;;;5095035;28;20291;-62
2023/01/07 08:03:49;;;;;;;1.20;1.00;;;15.20;94.60;;;;;;5095480;28;20200;-61
2023/01/07 08:06:37;;;;;;;0.90;0.90;;;15.20;94.60;;;;;;5094675;28;20215;-62
2023/01/07 08:09:27;;;;;;;0.90;0.90;;;15.20;94.70;;;;;;5093094;28;20688;-62
2023/01/07 08:12:15;;;;;;;1.00;0.80;;;15.20;94.70;;;;;;5098883;28;20212;-62
2023/01/07 08:15:05;;;;;;;0.90;0.90;;;15.20;94.40;;;;;;5094233;28;20680;-61
2023/01/07 08:17:58;;;;;;;1.00;0.90;;;15.20;94.70;;;;;;5094165;28;20671;-61
2023/01/07 08:20:47;;;;;;;0.97;0.97;;;15.20;94.70;;;;;;5094676;28;20277;-61
2023/01/07 08:23:35;;;;;;;1.10;0.93;;;15.20;94.70;;;;;;5092685;28;20277;-61
2023/01/07 08:26:24;;;;;;;1.15;0.70;;;15.20;94.70;;;;;;5094094;28;20247;-62
2023/01/07 08:29:12;;;;;;;1.50;0.88;;;15.10;94.70;;;;;;5093503;28;20200;-62
2023/01/07 08:32:00;;;;;;;1.00;0.90;;;15.10;94.70;;;;;;5093830;28;20248;-61
2023/01/07 08:34:48;;;;;;;0.85;0.77;;;15.10;94.70;;;;;;5093842;28;20683;-62
2023/01/07 08:37:36;;;;;;;1.20;1.00;;;15.10;94.70;;;;;;5094754;28;20265;-62
2023/01/07 08:40:24;;;;;;;1.13;1.03;;;15.10;94.70;;;;;;5093973;28;20577;-61
2023/01/07 08:43:14;;;;;;;0.90;0.90;;;15.10;94.80;;;;;;5092727;28;20227;-62
2023/01/07 08:46:02;;;;;;;0.80;0.80;;;15.20;94.90;;;;;;5093791;28;20673;-61
2023/01/07 08:48:50;;;;;;;0.87;0.87;;;15.10;94.80;;;;;;5092699;28;20228;-61
2023/01/07 08:51:38;;;;;;;0.90;0.90;;;15.10;94.90;;;;;;5095082;28;20211;-61
2023/01/07 08:54:27;;;;;;;0.77;0.77;;;15.10;94.90;;;;;;5093252;28;20283;-61
2023/01/07 08:57:16;;;;;;;0.80;0.80;;;15.10;94.80;;;;;;5092841;28;20257;-61
2023/01/07 09:00:07;;;;;;;0.90;0.90;;;15.10;94.80;;;;;;5094066;28;20200;-61
2023/01/07 09:02:55;;;;;;;0.82;0.82;;;15.20;94.80;;;;;;5094096;28;20300;-61
2023/01/07 09:05:43;;;;;;;1.98;0.90;;;15.10;94.80;;;;;;5094676;28;20283;-62
2023/01/07 09:08:31;;;;;;;1.20;1.10;;;15.30;94.80;;;;;;5093083;28;20204;-62
2023/01/07 09:11:19;;;;;;;0.93;0.93;;;15.30;99.90;;;;;;5093041;28;20241;-61
2023/01/07 09:14:07;;;;;;;1.17;1.00;;;15.20;94.80;;;;;;5092081;28;20235;-62
2023/01/07 09:16:57;;;;;;;1.00;0.90;;;15.20;94.80;;;;;;5093348;28;20277;-61
2023/01/07 09:19:45;;;;;;;0.75;0.70;;;15.20;94.70;;;;;;5092689;28;20282;-62
2023/01/07 09:22:35;;;;;;;0.80;0.80;;;15.20;94.70;;;;;;5094018;28;20216;-61
2023/01/07 09:25:23;;;;;;;0.98;0.93;;;15.40;94.80;;;;;;5093559;28;20228;-62
2023/01/07 09:28:11;;;;;;;0.73;0.70;;;15.30;94.70;;;;;;5092744;28;20309;-61
2023/01/07 09:30:59;;;;;;;0.70;0.70;;;15.20;94.70;;;;;;5093566;28;20334;-61
2023/01/07 09:33:49;;;;;;;1.10;1.00;;;15.30;94.70;;;;;;5094214;28;20219;-61
2023/01/07 09:36:37;;;;;;;0.90;0.90;;;15.40;94.70;;;;;;5095449;28;20280;-61
2023/01/07 09:39:25;;;;;;;0.80;0.80;;;15.40;94.70;;;;;;5099931;28;20219;-61
2023/01/07 09:42:23;;;;;;;0.90;0.90;;;15.30;94.60;;;;;;5107598;28;20316;-62
2023/01/07 09:45:16;;;;;;;0.82;0.82;;;15.30;94.60;;;;;;5107977;28;20204;-62
2023/01/07 09:48:12;;;;;;;1.02;0.82;;;15.30;94.70;;;;;;5106883;28;20219;-62
2023/01/07 09:51:05;;;;;;;0.95;0.85;;;15.30;94.60;;;;;;5102753;28;20204;-61
2023/01/07 09:53:56;;;;;;;0.98;0.80;;;15.30;94.70;;;;;;5098052;28;20234;-61
2023/01/07 09:56:46;;;;;;;0.88;0.80;;;15.30;94.60;;;;;;5094202;28;20715;-61
2023/01/07 09:59:34;;;;;;;0.77;0.77;;;15.20;94.60;;;;;;5092883;28;20241;-61
2023/01/07 10:02:38;;;;;;;0.90;0.90;;;14.50;94.30;;;;;;5093633;28;20220;-61
2023/01/07 10:05:35;;;;;;;0.80;0.70;;;15.20;94.60;;;;;;5092307;28;20206;-61
2023/01/07 10:08:36;;;;;;;1.03;1.00;;;15.30;94.70;;;;;;5092125;28;20754;-61
2023/01/07 10:11:35;;;;;;;0.90;0.90;;;15.40;99.90;;;;;;5092814;28;20572;-62
2023/01/07 10:14:51;;;;;;;1.00;0.90;;;15.20;94.70;;;;;;5092181;28;20341;-61
2023/01/07 10:17:50;;;;;;;1.70;0.95;;;15.20;94.60;;;;;;5093428;28;20227;-61
2023/01/07 10:20:46;;;;;;;0.80;0.80;;;15.20;94.70;;;;;;5092443;28;20680;-61
2023/01/07 10:23:40;;;;;;;1.00;0.80;;;15.20;94.70;;;;;;5092638;28;20269;-61
2023/01/07 10:26:32;;;;;;;0.80;0.80;;;15.20;94.70;;;;;;5093712;28;20224;-61
2023/01/07 10:29:28;;;;;;;0.70;0.70;;;15.20;94.70;;;;;;5092249;28;20317;-62
2023/01/07 10:32:18;;;;;;;0.88;0.80;;;15.20;94.80;;;;;;5093436;28;20240;-61
2023/01/07 10:35:16;;;;;;;0.80;0.80;;;15.10;94.80;;;;;;5092338;28;20195;-61
2023/01/07 10:38:05;;;;;;;0.70;0.70;;;15.20;94.80;;;;;;5090732;28;20659;-61
2023/01/07 10:40:58;;;;;;;0.80;0.80;;;15.10;94.70;;;;;;5092368;28;20647;-61
2023/01/07 10:44:03;;;;;;;0.80;0.80;;;15.20;94.80;;;;;;5092261;28;20731;-61
2023/01/07 10:47:03;;;;;;;0.73;0.70;;;15.20;94.70;;;;;;5092499;28;20668;-61
2023/01/07 10:50:03;;;;;;;0.80;0.80;;;15.30;94.80;;;;;;5090859;28;20719;-61
2023/01/07 10:53:00;;;;;;;0.70;0.70;;;15.40;94.90;;;;;;5091549;28;20306;-61
2023/01/07 10:55:58;;;;;;;0.80;0.80;;;15.20;94.70;;;;;;5092276;28;20207;-61
2023/01/07 10:58:47;;;;;;;0.93;0.93;;;15.30;94.70;;;;;;5091479;28;20196;-61
2023/01/07 11:01:39;;;;;;;0.80;0.80;;;15.20;99.90;;;;;;5092184;28;20326;-61
2023/01/07 11:04:27;;;;;;;0.80;0.80;;;15.30;94.70;;;;;;5092939;28;20206;-61
2023/01/07 11:07:25;;;;;;;1.13;0.80;;;15.30;94.70;;;;;;5091235;28;20269;-63
2023/01/07 11:10:16;;;;;;;1.03;0.93;;;15.30;94.70;;;;;;5090674;28;20204;-62
2023/01/07 11:13:13;;;;;;;0.70;0.70;;;15.30;94.70;;;;;;5091080;28;20234;-61
2023/01/07 11:16:08;;;;;;;2.15;0.75;;;15.30;94.70;;;;;;5093094;28;20275;-62
2023/01/07 11:19:03;;;;;;;0.70;0.70;;;15.30;94.70;;;;;;5091140;28;20199;-61
2023/01/07 11:21:51;;;;;;;0.70;0.70;;;15.30;94.70;;;;;;5091198;28;20256;-61
2023/01/07 11:24:40;;;;;;;1.10;0.90;;;15.40;94.70;;;;;;5092399;28;20550;-62
2023/01/07 11:27:31;;;;;;;0.80;0.80;;;15.30;94.70;;;;;;5092592;28;20220;-61
2023/01/07 11:30:26;;;;;;;1.42;0.80;;;15.30;94.70;;;;;;5091821;28;20918;-61
2023/01/07 11:33:22;;;;;;;1.20;1.10;;;15.30;94.70;;;;;;5092842;28;20252;-61
2023/01/07 11:36:40;;;;;;;1.00;0.90;;;15.40;94.70;;;;;;5095645;28;20196;-62
2023/01/07 11:39:30;;;;;;;1.00;0.90;;;15.30;94.70;;;;;;5094622;28;20737;-62
2023/01/07 11:45:31;;;;;;;0.80;0.80;;;15.30;94.70;;;;;;5095302;28;20219;-61
2023/01/07 11:48:27;;;;;;;0.80;0.80;;;15.30;94.70;;;;;;5096067;28;20219;-61
2023/01/07 11:51:16;;;;;;;0.70;0.70;;;15.30;94.70;;;;;;5095453;28;20725;-61
2023/01/07 11:54:04;;;;;;;0.80;0.80;;;15.30;94.70;;;;;;5095658;28;20262;-61
2023/01/07 11:56:53;;;;;;;1.42;0.80;;;15.20;94.70;;;;;;5094591;28;20228;-62
2023/01/07 11:59:42;;;;;;;0.82;0.80;;;15.30;94.70;;;;;;5094915;28;20249;-62
2023/01/07 12:02:31;;;;;;;0.82;0.70;;;15.20;94.70;;;;;;5094869;28;20265;-61
2023/01/07 12:05:23;;;;;;;1.42;0.80;;;15.20;94.80;;;;;;5095689;28;20279;-61
2023/01/07 12:08:20;;;;;;;7.25;0.93;;;15.20;94.70;;;;;;5094571;28;20303;-61
2023/01/07 12:11:13;;;;;;;0.93;0.90;;;15.20;94.80;;;;;;5094824;28;20766;-61
2023/01/07 12:14:06;;;;;;;1.45;0.90;;;15.30;94.80;;;;;;5095655;28;20672;-62
2023/01/07 12:16:56;;;;;;;0.77;0.77;;;15.20;94.80;;;;;;5095064;28;20204;-62
2023/01/07 12:20:00;;;;;;;1.50;0.80;;;15.30;94.90;;;;;;5095368;28;20228;-61
2023/01/07 12:23:01;;;;;;;0.77;0.77;;;15.20;94.80;;;;;;5095297;28;20277;-61
2023/01/07 12:25:58;;;;;;;2.10;0.80;;;15.30;94.90;;;;;;5096890;28;20278;-61
2023/01/07 12:29:00;;;;;;;1.98;0.90;;;15.20;94.80;;;;;;5096232;28;20306;-62
2023/01/07 12:32:02;;;;;;;0.80;0.70;;;15.20;94.80;;;;;;5095980;28;20223;-61
2023/01/07 12:34:57;;;;;;;1.08;1.08;;;15.40;95.00;;;;;;5096982;28;20281;-61
2023/01/07 12:38:05;;;;;;;2.42;0.77;;;15.30;94.90;;;;;;5094980;28;20207;-61
2023/01/07 12:40:58;;;;;;;1.10;1.00;;;15.30;94.90;;;;;;5095770;28;20207;-61
2023/01/07 12:43:55;;;;;;;1.17;0.80;;;15.30;94.90;;;;;;5114963;22;20673;-64
2023/01/07 12:46:58;;;;;;;0.87;0.87;;;15.30;94.90;;;;;;5092801;28;20283;-63
2023/01/07 12:50:15;;;;;;;0.82;0.82;;;15.30;94.90;;;;;;5087550;28;20220;-64
2023/01/07 12:53:07;;;;;;;1.00;1.00;;;15.30;94.90;;;;;;5087010;28;20763;-64
2023/01/07 12:56:00;;;;;;;1.13;0.88;;;15.30;94.90;;;;;;5085764;28;20278;-63
2023/01/07 12:58:53;;;;;;;0.70;0.70;;;15.30;94.90;;;;;;5092657;28;20206;-63
2023/01/07 13:01:46;;;;;;;0.93;0.80;;;15.50;99.90;;;;;;5092496;28;20618;-63
2023/01/07 13:04:46;;;;;;;1.02;1.02;;;15.30;94.90;;;;;;5092646;28;20203;-65
2023/01/07 13:07:42;;;;;;;0.80;0.80;;;15.30;94.90;;;;;;5092646;28;20698;-64
2023/01/07 13:10:35;;;;;;;0.85;0.85;;;15.20;94.80;;;;;;5092022;28;20744;-62
2023/01/07 13:13:28;;;;;;;1.63;0.93;;;15.40;95.00;;;;;;5092400;28;20291;-66
2023/01/07 13:16:16;;;;;;;0.80;0.80;;;15.30;94.90;;;;;;5092777;28;20200;-62
2023/01/07 13:19:08;;;;;;;3.08;1.10;;;14.60;94.60;;;;;;5086687;28;20200;-63
2023/01/07 13:21:56;;;;;;;0.80;0.80;;;15.20;99.90;;;;;;5085493;28;20280;-63
2023/01/07 13:25:01;;;;;;;1.35;0.80;;;15.30;94.90;;;;;;5091966;28;20334;-64
2023/01/07 13:28:07;;;;;;;1.10;1.00;;;15.20;94.90;;;;;;5084876;28;20317;-61
2023/01/07 13:31:14;;;;;;;0.80;0.80;;;15.30;94.90;;;;;;5091861;28;20232;-63
2023/01/07 13:34:11;;;;;;;0.93;0.80;;;15.40;95.00;;;;;;5086129;28;20216;-63
2023/01/07 13:37:21;;;;;;;0.95;0.80;;;15.20;94.90;;;;;;5085678;28;20228;-63
2023/01/07 13:40:27;;;;;;;1.30;0.90;;;15.20;94.90;;;;;;5091449;28;20196;-64
2023/01/07 13:43:31;;;;;;;0.80;0.80;;;15.20;94.90;;;;;;5091652;28;20226;-61
2023/01/07 13:46:22;;;;;;;0.83;0.80;;;15.20;94.90;;;;;;5091720;28;20668;-66
2023/01/07 13:49:24;;;;;;;1.10;1.00;;;15.20;94.90;;;;;;5091568;28;20351;-65
2023/01/07 13:52:15;;;;;;;1.25;1.00;;;15.40;95.00;;;;;;5092003;28;20272;-62
2023/01/07 13:55:38;;;;;;;0.98;0.90;;;15.40;95.00;;;;;;5091478;28;20195;-64
2023/01/07 13:58:44;;;;;;;1.50;0.82;;;15.30;94.90;;;;;;5091240;28;20621;-62
2023/01/07 14:01:33;;;;;;;2.40;0.80;;;15.20;94.90;;;;;;5091515;28;20200;-63
2023/01/07 14:04:34;;;;;;;0.95;0.88;;;15.30;94.90;;;;;;5090207;28;20679;-62
2023/01/07 14:07:23;;;;;;;0.85;0.85;;;15.30;95.00;;;;;;5091513;28;20633;-66
2023/01/07 14:10:19;;;;;;;0.90;0.90;;;15.30;95.00;;;;;;5091006;28;20219;-62
2023/01/07 14:13:19;;;;;;;1.23;0.80;;;15.30;95.00;;;;;;5091928;28;20304;-63
2023/01/07 14:16:15;;;;;;;1.00;0.90;;;15.50;95.10;;;;;;5086263;28;20196;-66
2023/01/07 14:19:13;;;;;;;0.95;0.80;;;15.30;95.00;;;;;;5089791;28;20572;-62
2023/01/07 14:22:07;;;;;;;0.93;0.90;;;15.30;95.00;;;;;;5085286;28;20312;-66
2023/01/07 14:25:18;;;;;;;0.90;0.90;;;15.40;95.00;;;;;;5084330;28;20282;-65
2023/01/07 14:28:29;;;;;;;0.70;0.70;;;15.30;95.00;;;;;;5091046;28;20280;-63
2023/01/07 14:31:22;;;;;;;1.00;0.80;;;15.30;94.90;;;;;;5091558;28;20326;-65
2023/01/07 14:34:19;;;;;;;1.25;1.00;;;15.50;95.10;;;;;;5091021;28;20223;-66
2023/01/07 14:37:14;;;;;;;0.82;0.80;;;15.20;95.00;;;;;;5091303;28;20200;-63
2023/01/07 14:40:42;;;;;;;0.80;0.80;;;15.40;95.00;;;;;;5084812;28;20276;-64
2023/01/07 14:44:01;;;;;;;0.80;0.80;;;15.30;95.00;;;;;;5091143;28;20306;-65
2023/01/07 14:46:51;;;;;;;0.70;0.70;;;15.20;95.00;;;;;;5090564;28;20228;-66
2023/01/07 14:50:04;;;;;;;0.82;0.80;;;15.30;95.00;;;;;;5090392;28;20347;-64
2023/01/07 14:53:45;;;;;;;1.08;0.98;;;15.30;95.00;;;;;;5089714;28;20228;-64
2023/01/07 14:56:47;;;;;;;0.85;0.85;;;15.30;95.00;;;;;;5090821;28;20300;-66
2023/01/07 15:00:06;;;;;;;0.90;0.90;;;15.40;95.10;;;;;;5090521;28;20200;-66
2023/01/07 15:03:26;;;;;;;1.00;0.90;;;15.20;95.00;;;;;;5082882;28;20223;-62
2023/01/07 15:06:25;;;;;;;1.02;0.60;;;15.20;95.00;;;;;;5018975;28;20645;-67
2023/01/07 15:16:04;;;;;;;0.90;0.90;;;15.20;95.00;;;;;;5095316;28;20192;-64